Poesville, Texas
Current Conditions -  °F | °C
As of 7:35 PM on Saturday 25 Oct 2014 (Local Time) from KCPT Reporting Station
Clear Clear  
Wind Chill: 79°   Ceiling: Unl
Heat Index: 80°   Visibility: 10mi
Dew Point: 63°   Wind: 7mph
Humidity: 57%   Direction: 150°SSE
Pressure: 30.08"   Gusts: NA
Location:  32.0481°N, 97.6449°W
Report Text: KCPT 260035Z AUTO 15006KT 10SM CLR 26/17 A3008 RMK AO2
Loading
Personal Weather Stations






























Interactive Weather Map New forecast layout! Learn more

10-Day Weather Forecast

Advertisements
Track Severe Weather on mobile